Time;durP1;ratioP1;P1;durP2;ratioP2;P2;SDS_P1;SDS_P2;PMS_P1;PMS_P2;Temp;Humidity;BMP_temperature;BMP_pressure;BME280_temperature;BME280_humidity;BME280_pressure;Samples;Min_cycle;Max_cycle;Signal;HPM_P1;HPM_P2
2023/03/16 00:00:42;;;;;;;6.43;2.20;;;2.40;99.90;;;;;;5059476;28;20025;-84
2023/03/16 00:03:18;;;;;;;7.55;2.50;;;2.40;99.90;;;;;;5055351;28;20563;-87
2023/03/16 00:05:45;;;;;;;;;;;2.40;99.90;;;;;;5057711;28;20485;-87
2023/03/16 00:08:11;;;;;;;8.88;2.60;;;2.30;99.90;;;;;;5060252;28;19973;-86
2023/03/16 00:10:36;;;;;;;10.50;2.47;;;2.30;99.90;;;;;;5042426;28;20108;-88
2023/03/16 00:13:02;;;;;;;9.35;2.70;;;2.40;99.90;;;;;;5055267;28;20358;-87
2023/03/16 00:15:29;;;;;;;10.50;2.78;;;2.40;99.90;;;;;;5057846;28;20032;-86
2023/03/16 00:17:54;;;;;;;10.93;2.33;;;2.40;99.90;;;;;;5049906;28;20488;-87
2023/03/16 00:20:20;;;;;;;10.43;3.33;;;2.50;99.90;;;;;;5050652;28;20075;-87
2023/03/16 00:22:46;;;;;;;12.57;2.60;;;2.50;99.90;;;;;;5052642;28;20081;-87
2023/03/16 00:25:13;;;;;;;15.98;2.25;;;2.50;99.90;;;;;;5056988;28;20021;-89
2023/03/16 00:27:39;;;;;;;10.88;2.55;;;2.40;99.90;;;;;;5055927;28;20458;-86
2023/03/16 00:30:05;;;;;;;22.73;3.00;;;2.40;99.90;;;;;;5063412;28;20438;-84
2023/03/16 00:32:35;;;;;;;15.20;2.65;;;2.40;99.90;;;;;;5053269;28;20119;-88
2023/03/16 00:35:02;;;;;;;16.83;3.47;;;2.40;99.90;;;;;;5054373;28;20023;-86
2023/03/16 00:37:28;;;;;;;18.27;2.70;;;2.30;99.90;;;;;;5058443;28;20025;-90
2023/03/16 00:39:56;;;;;;;12.63;2.85;;;2.40;99.90;;;;;;5052563;28;20032;-86
2023/03/16 00:42:27;;;;;;;15.77;2.83;;;2.40;99.90;;;;;;5054266;28;20067;-88
2023/03/16 00:44:56;;;;;;;7.50;2.25;;;2.30;99.90;;;;;;5060844;28;20028;-87
2023/03/16 00:47:28;;;;;;;12.20;2.33;;;2.30;99.90;;;;;;5042862;28;20021;-87
2023/03/16 00:49:54;;;;;;;12.85;2.92;;;2.20;99.90;;;;;;5046271;28;20024;-87
2023/03/16 00:52:21;;;;;;;6.68;1.92;;;2.20;99.90;;;;;;5055508;28;20603;-88
2023/03/16 00:54:47;;;;;;;7.57;1.90;;;2.10;99.90;;;;;;5053961;28;21104;-87
2023/03/16 00:57:15;;;;;;;13.32;2.42;;;2.10;99.90;;;;;;5059556;28;20478;-87
2023/03/16 00:59:41;;;;;;;5.60;2.17;;;2.20;99.90;;;;;;5044161;28;20724;-86
2023/03/16 01:02:08;;;;;;;12.40;2.20;;;2.20;99.90;;;;;;5055457;28;20389;-87
2023/03/16 01:04:35;;;;;;;7.05;1.90;;;2.20;99.90;;;;;;5053020;28;20063;-87
2023/03/16 01:07:02;;;;;;;15.45;3.67;;;2.20;99.90;;;;;;5057201;28;20025;-87
2023/03/16 01:09:28;;;;;;;8.82;1.80;;;2.20;99.90;;;;;;5059478;28;20023;-88
2023/03/16 01:11:53;;;;;;;6.32;2.00;;;2.20;99.90;;;;;;5054486;28;20056;-87
2023/03/16 01:14:20;;;;;;;5.85;1.83;;;2.20;99.90;;;;;;5055463;28;20373;-88
2023/03/16 01:16:47;;;;;;;4.38;1.85;;;2.20;99.90;;;;;;5061772;28;20029;-87
2023/03/16 01:19:14;;;;;;;10.45;2.30;;;2.20;99.90;;;;;;5049761;28;20029;-88
2023/03/16 01:21:41;;;;;;;7.90;1.63;;;2.20;99.90;;;;;;5064574;28;20016;-85
2023/03/16 01:24:07;;;;;;;4.45;1.95;;;2.20;99.90;;;;;;5055568;28;20649;-89
2023/03/16 01:26:33;;;;;;;15.10;2.60;;;2.20;99.90;;;;;;5055567;28;20048;-88
2023/03/16 01:28:59;;;;;;;4.97;2.00;;;2.20;99.90;;;;;;5052292;28;20035;-89
2023/03/16 01:31:24;;;;;;;8.93;2.03;;;2.20;99.90;;;;;;5053412;28;20018;-87
2023/03/16 01:33:51;;;;;;;7.88;1.85;;;2.20;99.90;;;;;;5052837;28;20075;-87
2023/03/16 01:36:18;;;;;;;15.38;2.33;;;2.10;99.90;;;;;;5058723;28;20087;-88
2023/03/16 01:38:44;;;;;;;5.55;2.00;;;2.10;99.90;;;;;;5057729;28;20025;-85
2023/03/16 01:41:11;;;;;;;7.22;1.95;;;2.10;99.90;;;;;;5054649;28;20028;-88
2023/03/16 01:43:38;;;;;;;11.05;2.08;;;2.10;99.90;;;;;;5060931;28;20544;-87
2023/03/16 01:46:04;;;;;;;9.77;2.53;;;2.00;99.90;;;;;;5056052;28;20029;-85
2023/03/16 01:48:36;;;;;;;5.28;1.80;;;2.00;99.90;;;;;;5049844;28;20373;-87
2023/03/16 01:51:19;;;;;;;8.73;1.95;;;2.00;99.90;;;;;;5052223;28;20089;-87
2023/03/16 01:53:47;;;;;;;12.75;3.70;;;1.90;99.90;;;;;;5055736;28;20033;-86
2023/03/16 01:56:17;;;;;;;9.48;2.15;;;1.90;99.90;;;;;;5049185;28;20040;-88
2023/03/16 01:58:45;;;;;;;6.72;1.60;;;1.90;99.90;;;;;;5049276;28;20035;-85
2023/03/16 02:01:12;;;;;;;5.85;1.80;;;1.80;99.90;;;;;;5056278;28;20032;-84
2023/03/16 02:03:40;;;;;;;1.52;1.35;;;1.80;99.90;;;;;;5054176;28;20056;-88
2023/03/16 02:06:18;;;;;;;5.82;1.63;;;1.80;99.90;;;;;;5060685;28;20043;-87
2023/03/16 02:08:47;;;;;;;3.00;1.67;;;1.80;99.90;;;;;;5050918;28;20107;-85
2023/03/16 02:11:16;;;;;;;7.47;1.70;;;1.70;99.90;;;;;;5061481;28;20020;-87
2023/03/16 02:13:45;;;;;;;6.55;1.90;;;1.70;99.90;;;;;;5054019;28;20036;-90
2023/03/16 02:16:18;;;;;;;10.30;1.80;;;1.70;99.90;;;;;;5054558;28;20029;-88
2023/03/16 02:18:45;;;;;;;10.55;1.83;;;1.70;99.90;;;;;;5057570;28;20036;-84
2023/03/16 02:21:24;;;;;;;3.90;1.80;;;1.60;99.90;;;;;;5053542;28;20028;-88
2023/03/16 02:23:50;;;;;;;7.40;2.00;;;1.70;99.90;;;;;;5058008;28;20074;-86
2023/03/16 02:26:34;;;;;;;10.80;1.92;;;1.70;99.90;;;;;;5052146;28;20104;-85
2023/03/16 02:29:09;;;;;;;6.35;2.22;;;1.80;99.90;;;;;;5056800;28;20021;-83
2023/03/16 02:31:35;;;;;;;13.93;2.92;;;1.80;99.90;;;;;;5051265;28;20027;-85
2023/03/16 02:34:01;;;;;;;10.43;2.95;;;1.90;99.90;;;;;;5056586;28;20033;-80
2023/03/16 02:36:28;;;;;;;8.15;2.38;;;1.90;99.90;;;;;;5058595;28;20059;-86
2023/03/16 02:38:54;;;;;;;11.88;2.10;;;1.90;99.90;;;;;;5052145;28;20033;-87
2023/03/16 02:41:20;;;;;;;13.55;2.38;;;2.00;99.90;;;;;;5059769;28;20036;-86
2023/03/16 02:44:14;;;;;;;16.17;3.03;;;2.00;99.90;;;;;;5052790;28;20031;-82
2023/03/16 02:46:42;;;;;;;9.13;2.40;;;2.00;99.90;;;;;;5069365;28;20028;-83
2023/03/16 02:49:23;;;;;;;11.85;2.38;;;2.00;99.90;;;;;;5061415;28;20074;-88
2023/03/16 02:51:50;;;;;;;8.00;2.50;;;2.00;99.90;;;;;;5066845;28;20020;-87
2023/03/16 02:54:15;;;;;;;19.50;2.58;;;2.00;99.90;;;;;;5061306;28;20028;-88
2023/03/16 02:56:41;;;;;;;10.27;2.58;;;2.10;99.90;;;;;;5057312;28;20531;-87
2023/03/16 02:59:07;;;;;;;8.80;2.03;;;2.10;99.90;;;;;;5053985;28;20056;-87
2023/03/16 03:01:33;;;;;;;9.57;1.90;;;2.10;99.90;;;;;;5059352;28;20111;-88
2023/03/16 03:04:00;;;;;;;5.93;1.88;;;2.10;99.90;;;;;;5052660;28;20104;-85
2023/03/16 03:06:26;;;;;;;9.25;2.63;;;2.10;99.90;;;;;;5057953;28;20029;-87
2023/03/16 03:08:51;;;;;;;7.00;2.33;;;2.20;99.90;;;;;;5062187;28;20044;-84
2023/03/16 03:11:18;;;;;;;11.05;2.60;;;2.20;99.90;;;;;;5065288;28;20520;-88
2023/03/16 03:13:45;;;;;;;8.60;2.20;;;2.20;99.90;;;;;;5052071;28;20067;-84
2023/03/16 03:16:11;;;;;;;11.73;2.33;;;2.20;99.90;;;;;;5059818;28;20029;-81
2023/03/16 03:18:37;;;;;;;13.75;3.58;;;2.20;99.90;;;;;;5053646;28;20025;-88
2023/03/16 03:21:06;;;;;;;25.33;4.68;;;2.10;99.90;;;;;;5068510;28;20071;-89
2023/03/16 03:23:33;;;;;;;24.02;5.05;;;2.10;99.90;;;;;;5064854;28;20078;-85
2023/03/16 03:25:59;;;;;;;18.48;3.85;;;2.10;99.90;;;;;;5061189;28;20025;-88
2023/03/16 03:28:25;;;;;;;13.50;3.42;;;2.10;99.90;;;;;;5049500;28;20078;-84
2023/03/16 03:30:51;;;;;;;7.70;2.53;;;2.10;99.90;;;;;;5048863;28;20029;-88
2023/03/16 03:33:17;;;;;;;11.70;2.90;;;2.10;99.90;;;;;;5059106;28;20040;-86
2023/03/16 03:35:43;;;;;;;9.60;2.55;;;2.10;99.90;;;;;;5058911;28;20028;-83
2023/03/16 03:38:10;;;;;;;9.95;2.30;;;2.10;99.90;;;;;;5059593;28;20365;-87
2023/03/16 03:40:36;;;;;;;13.45;2.50;;;2.10;99.90;;;;;;5057669;28;20063;-81
2023/03/16 03:43:03;;;;;;;4.95;1.92;;;2.10;99.90;;;;;;5055374;28;20423;-87
2023/03/16 03:45:28;;;;;;;6.47;2.40;;;2.10;99.90;;;;;;5050007;28;20021;-84
2023/03/16 03:47:54;;;;;;;3.38;1.98;;;2.10;99.90;;;;;;5057391;28;20032;-86
2023/03/16 03:50:21;;;;;;;5.35;1.90;;;2.10;99.90;;;;;;5059132;28;20380;-87
2023/03/16 03:52:46;;;;;;;8.50;2.33;;;2.10;99.90;;;;;;5059151;28;20024;-84
2023/03/16 03:55:12;;;;;;;24.58;2.38;;;2.10;99.90;;;;;;5066226;28;20035;-85
2023/03/16 03:57:38;;;;;;;9.75;2.28;;;2.10;99.90;;;;;;5047062;28;20022;-88
2023/03/16 04:00:10;;;;;;;19.48;3.33;;;2.10;99.90;;;;;;5055821;28;20039;-88
2023/03/16 04:02:36;;;;;;;12.82;3.03;;;2.10;99.90;;;;;;5057680;28;20049;-88
2023/03/16 04:05:04;;;;;;;10.73;2.47;;;2.10;99.90;;;;;;5054583;28;20041;-89
2023/03/16 04:07:29;;;;;;;8.15;2.30;;;2.10;99.90;;;;;;5043633;28;20048;-88
2023/03/16 04:09:55;;;;;;;6.93;2.05;;;2.10;99.90;;;;;;5051842;28;20048;-87
2023/03/16 04:12:20;;;;;;;6.35;2.20;;;2.10;99.90;;;;;;5052254;28;20050;-87
2023/03/16 04:14:48;;;;;;;10.82;2.15;;;2.10;99.90;;;;;;5060185;28;20386;-86
2023/03/16 04:17:14;;;;;;;16.98;4.82;;;2.10;99.90;;;;;;5060350;28;20020;-87
2023/03/16 04:19:39;;;;;;;16.17;3.10;;;2.10;99.90;;;;;;5052956;28;20505;-85
2023/03/16 04:22:06;;;;;;;8.02;2.55;;;2.10;99.90;;;;;;5053413;28;20116;-85
2023/03/16 04:24:33;;;;;;;11.50;2.53;;;2.10;99.90;;;;;;5050498;28;20050;-89
2023/03/16 04:26:59;;;;;;;9.43;2.17;;;2.10;99.90;;;;;;5054457;28;20074;-85
2023/03/16 04:29:26;;;;;;;11.55;2.33;;;2.10;99.90;;;;;;5061801;28;20073;-89
2023/03/16 04:31:52;;;;;;;6.32;1.73;;;2.10;99.90;;;;;;5050269;28;20461;-86
2023/03/16 04:34:23;;;;;;;10.43;2.30;;;2.10;99.90;;;;;;5049130;28;20032;-88
2023/03/16 04:36:50;;;;;;;7.07;2.30;;;2.10;99.90;;;;;;5050646;28;20028;-85
2023/03/16 04:39:16;;;;;;;5.45;2.50;;;2.10;99.90;;;;;;5047856;28;20021;-87
2023/03/16 04:41:42;;;;;;;11.02;2.10;;;2.10;99.90;;;;;;5046103;28;20032;-87
2023/03/16 04:44:14;;;;;;;9.90;3.10;;;2.10;99.90;;;;;;5044919;28;20086;-87
2023/03/16 04:46:39;;;;;;;9.00;2.20;;;2.10;99.90;;;;;;5046246;28;20339;-87
2023/03/16 04:49:08;;;;;;;11.60;2.15;;;2.00;99.90;;;;;;5045884;28;20077;-84
2023/03/16 04:51:39;;;;;;;4.60;2.20;;;2.10;99.90;;;;;;5048167;28;20208;-84
2023/03/16 04:54:05;;;;;;;8.40;2.63;;;2.10;99.90;;;;;;5043987;28;20151;-85
2023/03/16 04:56:30;;;;;;;9.05;2.70;;;2.10;99.90;;;;;;5054953;28;20108;-84
2023/03/16 04:58:56;;;;;;;12.77;2.67;;;2.10;99.90;;;;;;5052653;28;20021;-83
2023/03/16 05:01:27;;;;;;;9.07;2.25;;;2.10;99.90;;;;;;5050101;28;20458;-86
2023/03/16 05:03:53;;;;;;;12.48;3.45;;;2.10;99.90;;;;;;5055193;28;20021;-86
2023/03/16 05:06:19;;;;;;;11.48;2.50;;;2.10;99.90;;;;;;5047881;28;20036;-87
2023/03/16 05:08:45;;;;;;;9.90;2.83;;;2.10;99.90;;;;;;5047874;28;20029;-87
2023/03/16 05:11:10;;;;;;;6.63;2.25;;;2.10;99.90;;;;;;5046982;28;20050;-86
2023/03/16 05:13:36;;;;;;;9.32;2.50;;;2.10;99.90;;;;;;5047274;28;20485;-87
2023/03/16 05:16:01;;;;;;;8.95;2.25;;;2.10;99.90;;;;;;5057858;28;20466;-87
2023/03/16 05:18:27;;;;;;;6.07;1.92;;;2.10;99.90;;;;;;5047494;28;20162;-82
2023/03/16 05:20:54;;;;;;;9.63;2.28;;;2.00;99.90;;;;;;5051302;28;20022;-88
2023/03/16 05:23:21;;;;;;;13.65;3.13;;;2.10;99.90;;;;;;5048772;28;20033;-88
2023/03/16 05:25:48;;;;;;;6.72;2.03;;;2.10;99.90;;;;;;5045463;28;20028;-86
2023/03/16 05:28:14;;;;;;;6.20;2.75;;;2.00;99.90;;;;;;5036547;28;20523;-87
2023/03/16 05:30:41;;;;;;;11.13;2.47;;;2.00;99.90;;;;;;5045275;28;20025;-86
2023/03/16 05:33:07;;;;;;;8.38;2.17;;;2.00;99.90;;;;;;5045879;28;20043;-80
2023/03/16 05:35:33;;;;;;;8.60;2.50;;;2.00;99.90;;;;;;5047834;28;20053;-86
2023/03/16 05:37:59;;;;;;;16.05;2.72;;;2.00;99.90;;;;;;5045581;28;20061;-87
2023/03/16 05:40:25;;;;;;;20.08;2.50;;;2.10;99.90;;;;;;5059479;28;20052;-87
2023/03/16 05:42:54;;;;;;;9.70;2.67;;;2.00;99.90;;;;;;5052696;28;20021;-82
2023/03/16 05:45:20;;;;;;;8.45;2.60;;;2.10;99.90;;;;;;5043333;28;20541;-86
2023/03/16 05:47:46;;;;;;;5.15;2.03;;;2.10;99.90;;;;;;5041966;28;20104;-86
2023/03/16 05:50:15;;;;;;;7.50;2.17;;;2.10;99.90;;;;;;5055044;28;20024;-87
2023/03/16 05:52:41;;;;;;;10.48;2.60;;;2.00;99.90;;;;;;5051723;28;20039;-87
2023/03/16 05:55:08;;;;;;;9.20;2.20;;;2.00;99.90;;;;;;5047415;28;20033;-86
2023/03/16 05:57:34;;;;;;;7.40;3.33;;;2.00;99.90;;;;;;5049063;28;20013;-87
2023/03/16 06:00:01;;;;;;;9.30;1.95;;;2.10;99.90;;;;;;5057376;28;20025;-86
2023/03/16 06:02:27;;;;;;;11.80;2.25;;;2.10;99.90;;;;;;5050881;28;20033;-88
2023/03/16 06:05:43;;;;;;;10.65;1.90;;;2.10;99.90;;;;;;5044280;28;20029;-88
2023/03/16 06:08:08;;;;;;;4.05;2.30;;;2.10;99.90;;;;;;5049357;28;20028;-88
2023/03/16 06:10:37;;;;;;;11.98;2.85;;;2.10;99.90;;;;;;5047632;28;20047;-86
2023/03/16 06:13:04;;;;;;;12.90;3.30;;;2.10;99.90;;;;;;5052262;28;20576;-92
2023/03/16 06:15:29;;;;;;;8.43;2.35;;;2.10;99.90;;;;;;5046845;28;20034;-87
2023/03/16 06:17:55;;;;;;;7.03;1.90;;;2.10;99.90;;;;;;5062839;28;20024;-87
2023/03/16 06:20:21;;;;;;;5.57;1.90;;;2.10;99.90;;;;;;5071593;28;20021;-88
2023/03/16 06:22:46;;;;;;;7.32;1.80;;;2.20;99.90;;;;;;5071168;28;20031;-87
2023/03/16 06:25:13;;;;;;;7.93;2.22;;;2.20;99.90;;;;;;5062951;28;20033;-89
2023/03/16 06:27:39;;;;;;;4.78;1.90;;;2.20;99.90;;;;;;5070321;28;20107;-89
2023/03/16 06:30:10;;;;;;;5.80;1.58;;;2.20;99.90;;;;;;5069878;28;20107;-87
2023/03/16 06:32:36;;;;;;;5.03;1.63;;;2.20;99.90;;;;;;5071101;28;20028;-88
2023/03/16 07:28:51;;;;;;;21.35;1.95;;;3.40;99.90;;;;;;4979413;28;20138;-86
2023/03/16 07:31:17;;;;;;;12.73;1.83;;;3.40;99.90;;;;;;4989430;28;20094;-87
2023/03/16 07:33:43;;;;;;;7.20;1.63;;;3.50;99.90;;;;;;4989029;28;20049;-86
2023/03/16 07:36:09;;;;;;;9.00;2.30;;;3.60;99.90;;;;;;4989499;28;20034;-86
2023/03/16 07:38:35;;;;;;;20.10;2.58;;;3.60;99.90;;;;;;4980975;28;20029;-85
2023/03/16 07:41:00;;;;;;;8.52;1.70;;;3.60;99.90;;;;;;4980308;28;20026;-81
2023/03/16 07:43:26;;;;;;;9.82;1.55;;;3.70;99.90;;;;;;4987198;28;20018;-80
2023/03/16 07:45:52;;;;;;;7.35;2.28;;;3.70;99.90;;;;;;4989826;28;20033;-84
2023/03/16 07:48:21;;;;;;;7.07;1.70;;;3.80;99.90;;;;;;4989997;28;20023;-87
2023/03/16 07:50:47;;;;;;;7.88;1.65;;;3.80;99.90;;;;;;4983551;28;20376;-82
2023/03/16 07:53:14;;;;;;;13.02;1.73;;;3.90;99.90;;;;;;4985023;28;20121;-88
2023/03/16 07:55:41;;;;;;;12.40;1.80;;;3.90;99.90;;;;;;4980767;28;20076;-81
2023/03/16 07:58:09;;;;;;;17.25;2.17;;;3.90;99.90;;;;;;4990133;28;20468;-82
2023/03/16 08:00:35;;;;;;;4.30;1.83;;;4.00;99.90;;;;;;4988933;28;20089;-80
2023/03/16 08:03:01;;;;;;;8.50;1.95;;;3.90;99.90;;;;;;4970466;28;20341;-83
2023/03/16 08:05:27;;;;;;;7.45;1.88;;;4.00;99.90;;;;;;4971424;28;20044;-85
2023/03/16 08:07:53;;;;;;;7.53;1.52;;;4.00;99.90;;;;;;4956817;28;20467;-88
2023/03/16 08:10:18;;;;;;;9.15;1.73;;;4.00;99.90;;;;;;4979080;28;20026;-85
2023/03/16 08:12:44;;;;;;;8.75;2.20;;;4.00;99.90;;;;;;4975993;28;20086;-88
2023/03/16 08:15:10;;;;;;;9.10;1.83;;;4.10;99.90;;;;;;4981590;28;20420;-86
2023/03/16 08:17:36;;;;;;;9.02;1.85;;;4.10;99.90;;;;;;4978792;28;20026;-84
2023/03/16 08:20:07;;;;;;;13.77;2.38;;;4.20;99.90;;;;;;4981543;28;20218;-86
2023/03/16 08:22:35;;;;;;;7.90;2.10;;;4.30;99.90;;;;;;4975105;28;20058;-88
2023/03/16 08:25:05;;;;;;;4.60;2.10;;;4.30;99.90;;;;;;4977885;28;20109;-88
2023/03/16 08:27:31;;;;;;;8.55;2.75;;;4.30;99.90;;;;;;4982041;28;20105;-86
2023/03/16 08:30:03;;;;;;;14.13;4.60;;;4.30;99.90;;;;;;4982244;28;20022;-88
2023/03/16 08:32:29;;;;;;;6.53;2.55;;;4.40;99.90;;;;;;4977637;28;20062;-88
2023/03/16 08:34:56;;;;;;;11.95;2.13;;;4.40;99.90;;;;;;4985097;28;20444;-86
2023/03/16 08:37:22;;;;;;;6.65;2.20;;;4.50;99.90;;;;;;4977150;28;20045;-89
2023/03/16 08:39:50;;;;;;;6.47;2.17;;;4.60;99.90;;;;;;4977309;28;20079;-89
2023/03/16 08:42:16;;;;;;;22.55;2.28;;;4.60;99.90;;;;;;4979571;28;20030;-87
2023/03/16 08:44:42;;;;;;;5.63;1.70;;;4.70;99.90;;;;;;4982333;28;20037;-88
2023/03/16 08:47:09;;;;;;;11.18;2.00;;;4.80;99.90;;;;;;4978150;28;20271;-87
2023/03/16 08:49:35;;;;;;;9.00;2.00;;;4.80;99.90;;;;;;4977139;28;20049;-87
2023/03/16 08:52:01;;;;;;;6.53;2.30;;;4.90;99.90;;;;;;4981097;28;20022;-85
2023/03/16 08:54:27;;;;;;;4.47;1.77;;;4.90;99.90;;;;;;4982729;28;20100;-88
2023/03/16 08:56:54;;;;;;;4.47;1.70;;;5.00;98.30;;;;;;4976408;28;20026;-88
2023/03/16 08:59:19;;;;;;;7.07;1.80;;;5.00;95.60;;;;;;4980835;28;20050;-89
2023/03/16 09:01:45;;;;;;;8.63;1.95;;;5.20;98.30;;;;;;4982777;28;20053;-87
2023/03/16 09:04:11;;;;;;;11.52;1.63;;;5.20;98.00;;;;;;4981299;28;20026;-86
2023/03/16 09:06:38;;;;;;;4.22;1.88;;;5.20;93.10;;;;;;4979348;28;20022;-89
2023/03/16 09:09:03;;;;;;;16.70;1.83;;;5.30;91.00;;;;;;4980077;28;20034;-85
2023/03/16 09:11:32;;;;;;;4.70;2.28;;;5.30;90.40;;;;;;4982262;28;20058;-87
2023/03/16 09:13:59;;;;;;;4.72;1.50;;;5.30;78.30;;;;;;4981935;28;20046;-90
2023/03/16 09:16:25;;;;;;;5.43;1.45;;;5.50;65.90;;;;;;4972031;28;20027;-88
2023/03/16 09:18:54;;;;;;;4.93;1.45;;;5.50;70.40;;;;;;4978212;28;20399;-86
2023/03/16 09:21:20;;;;;;;5.60;1.55;;;5.50;66.00;;;;;;4978281;28;20027;-84
2023/03/16 09:23:45;;;;;;;5.65;1.63;;;5.50;71.80;;;;;;4981643;28;20033;-89
2023/03/16 09:26:12;;;;;;;6.68;1.50;;;5.50;80.60;;;;;;4978745;28;20034;-88
2023/03/16 09:28:41;;;;;;;5.63;1.75;;;5.60;88.90;;;;;;4979981;28;20050;-86
2023/03/16 09:31:07;;;;;;;5.47;1.50;;;5.60;84.00;;;;;;4980827;28;20037;-86
2023/03/16 09:33:34;;;;;;;5.15;1.63;;;5.60;77.10;;;;;;4979735;28;20396;-93
2023/03/16 09:36:00;;;;;;;2.83;1.30;;;5.60;77.40;;;;;;4977502;28;20026;-87
2023/03/16 09:38:27;;;;;;;6.07;1.40;;;5.60;71.60;;;;;;4976085;28;20038;-86
2023/03/16 09:41:27;;;;;;;8.00;1.55;;;5.60;78.80;;;;;;4976138;28;20051;-84
2023/03/16 09:44:02;;;;;;;11.43;2.00;;;5.70;77.70;;;;;;4972393;28;20050;-87
2023/03/16 09:46:41;;;;;;;9.23;1.55;;;5.70;72.00;;;;;;4981629;28;20030;-91
2023/03/16 09:49:10;;;;;;;13.93;2.03;;;5.80;72.10;;;;;;4985228;28;20042;-88
2023/03/16 09:51:51;;;;;;;4.95;1.88;;;5.70;78.70;;;;;;4979401;28;20113;-87
2023/03/16 09:54:38;;;;;;;4.63;1.45;;;5.80;74.50;;;;;;4974002;28;20044;-83
2023/03/16 09:57:13;;;;;;;5.15;1.45;;;5.90;58.20;;;;;;4982617;28;20131;-86
2023/03/16 09:59:39;;;;;;;13.18;1.70;;;6.00;60.90;;;;;;4972141;28;20026;-84
2023/03/16 10:02:25;;;;;;;4.20;1.80;;;6.20;61.70;;;;;;4979664;28;20507;-89
2023/03/16 10:05:09;;;;;;;8.38;2.13;;;6.20;57.50;;;;;;4983643;28;20030;-85
2023/03/16 10:08:01;;;;;;;6.05;1.95;;;6.20;55.00;;;;;;4973393;28;20084;-91
2023/03/16 10:10:41;;;;;;;3.95;1.38;;;6.20;67.50;;;;;;4980037;28;20018;-90
2023/03/16 10:13:21;;;;;;;4.50;1.33;;;6.20;67.00;;;;;;4973841;28;20088;-88
2023/03/16 10:15:48;;;;;;;1.65;0.98;;;6.30;58.50;;;;;;4975807;28;20438;-84
2023/03/16 10:18:22;;;;;;;8.88;1.75;;;6.30;55.20;;;;;;4985970;28;20034;-90
2023/03/16 10:20:49;;;;;;;4.32;1.58;;;6.40;51.80;;;;;;4984899;28;20022;-90
2023/03/16 10:23:23;;;;;;;7.40;1.98;;;6.40;53.00;;;;;;4979320;28;20023;-90
2023/03/16 10:25:51;;;;;;;6.32;1.58;;;6.30;58.30;;;;;;4990811;28;20057;-82
2023/03/16 10:28:25;;;;;;;4.30;1.20;;;6.40;61.20;;;;;;4982890;28;20133;-90
2023/03/16 10:30:57;;;;;;;5.35;1.50;;;6.50;61.90;;;;;;4982422;28;20371;-88
2023/03/16 10:33:26;;;;;;;6.20;1.50;;;6.50;60.40;;;;;;4977268;28;20045;-90
2023/03/16 10:36:10;;;;;;;6.65;1.50;;;6.50;55.80;;;;;;4987101;28;20035;-87
2023/03/16 10:38:49;;;;;;;5.35;1.77;;;6.50;57.60;;;;;;4984765;28;20033;-87
2023/03/16 10:41:19;;;;;;;9.13;1.42;;;6.40;61.40;;;;;;4981984;28;20375;-83
2023/03/16 10:43:46;;;;;;;5.00;1.20;;;6.40;58.00;;;;;;4981029;28;20035;-88
2023/03/16 10:46:11;;;;;;;5.78;1.30;;;6.40;57.40;;;;;;4987262;28;20514;-91
2023/03/16 10:48:39;;;;;;;4.22;1.65;;;6.50;53.80;;;;;;4977456;28;20066;-89
2023/03/16 10:51:13;;;;;;;5.13;1.10;;;6.50;57.90;;;;;;4978955;28;20026;-90
2023/03/16 10:53:43;;;;;;;4.43;1.52;;;6.60;58.90;;;;;;4980578;28;20039;-90
2023/03/16 10:56:12;;;;;;;5.25;1.38;;;6.60;59.30;;;;;;4979768;28;20498;-87
2023/03/16 10:58:41;;;;;;;1.55;1.08;;;6.70;59.40;;;;;;4981583;28;20161;-87
2023/03/16 11:01:43;;;;;;;3.83;1.30;;;6.80;58.90;;;;;;4984665;28;20041;-90
2023/03/16 11:04:14;;;;;;;4.43;1.40;;;6.80;57.80;;;;;;4963111;28;20046;-89
2023/03/16 11:06:51;;;;;;;3.10;1.58;;;6.80;58.40;;;;;;4989460;28;20018;-89
2023/03/16 11:09:23;;;;;;;2.88;1.30;;;6.80;61.30;;;;;;4987848;28;20455;-88
2023/03/16 11:11:50;;;;;;;4.75;1.00;;;6.80;64.20;;;;;;4981273;28;20539;-88
2023/03/16 11:14:21;;;;;;;6.07;1.60;;;6.90;66.40;;;;;;4982977;28;20050;-90
2023/03/16 11:16:46;;;;;;;5.88;1.42;;;6.90;63.60;;;;;;4984347;28;20022;-89
2023/03/16 11:19:30;;;;;;;3.17;1.15;;;7.00;56.80;;;;;;4988341;28;20770;-89
2023/03/16 11:22:08;;;;;;;7.78;1.77;;;7.10;57.10;;;;;;4983880;28;20023;-89
2023/03/16 11:24:46;;;;;;;7.03;1.70;;;7.20;65.10;;;;;;4986609;28;20046;-87
2023/03/16 11:27:45;;;;;;;5.85;1.50;;;7.20;63.20;;;;;;4984483;28;20046;-88
2023/03/16 11:30:19;;;;;;;6.95;1.55;;;7.20;65.30;;;;;;4952549;28;20061;-86
2023/03/16 11:32:53;;;;;;;6.20;1.63;;;7.20;62.70;;;;;;4987703;28;20113;-89
2023/03/16 11:35:33;;;;;;;4.82;1.35;;;7.30;69.10;;;;;;4987716;28;20030;-91
2023/03/16 11:38:05;;;;;;;7.82;1.75;;;7.30;68.30;;;;;;4985949;28;20030;-86
2023/03/16 11:40:52;;;;;;;8.05;2.45;;;7.40;65.00;;;;;;4982182;28;20033;-88
2023/03/16 11:43:48;;;;;;;3.63;1.63;;;7.40;72.20;;;;;;4982115;28;20431;-89
2023/03/16 11:46:23;;;;;;;9.00;2.25;;;7.50;73.00;;;;;;4979989;28;20030;-91
2023/03/16 11:49:08;;;;;;;10.00;1.88;;;7.50;74.50;;;;;;4986474;28;20049;-87
2023/03/16 11:51:51;;;;;;;9.52;2.03;;;7.50;81.40;;;;;;4980535;28;20026;-88
2023/03/16 11:54:30;;;;;;;6.32;2.00;;;7.40;81.80;;;;;;4976514;28;20093;-87
2023/03/16 11:57:17;;;;;;;5.72;1.85;;;7.40;80.00;;;;;;4983137;28;20088;-90
2023/03/16 11:59:59;;;;;;;10.90;2.33;;;7.40;85.50;;;;;;4986021;28;20029;-88
2023/03/16 12:02:27;;;;;;;11.18;2.35;;;7.50;84.40;;;;;;4977688;28;20035;-90
2023/03/16 12:05:06;;;;;;;9.55;2.53;;;7.50;84.30;;;;;;4986976;28;20406;-82
2023/03/16 12:07:41;;;;;;;5.40;2.05;;;7.60;83.80;;;;;;4980724;28;20463;-89
2023/03/16 12:10:36;;;;;;;6.40;2.08;;;7.70;92.50;;;;;;4969634;28;20441;-86
2023/03/16 12:13:02;;;;;;;6.72;2.05;;;7.80;95.50;;;;;;4945343;28;20093;-89
2023/03/16 12:15:48;;;;;;;8.20;2.42;;;7.80;96.00;;;;;;4980108;28;20023;-85
2023/03/16 12:18:17;;;;;;;4.28;2.35;;;7.80;99.70;;;;;;4977947;28;20030;-88
2023/03/16 12:21:01;;;;;;;5.70;1.80;;;7.90;97.30;;;;;;4980254;28;20042;-90
2023/03/16 12:23:52;;;;;;;9.98;4.05;;;7.90;99.90;;;;;;4988086;28;20022;-89
2023/03/16 12:26:21;;;;;;;9.45;2.75;;;7.90;99.90;;;;;;4987735;28;20034;-91
2023/03/16 12:28:49;;;;;;;8.45;2.60;;;8.00;99.40;;;;;;4974727;28;20558;-89
2023/03/16 12:31:18;;;;;;;10.07;2.38;;;7.90;99.90;;;;;;4973190;28;20038;-86
2023/03/16 12:33:53;;;;;;;9.35;2.58;;;8.00;99.90;;;;;;4986871;28;20543;-90
2023/03/16 12:36:30;;;;;;;7.55;2.50;;;8.00;99.90;;;;;;4974313;28;20480;-87
2023/03/16 12:39:04;;;;;;;8.70;2.80;;;8.00;97.50;;;;;;4981268;28;20050;-90
2023/03/16 12:41:54;;;;;;;8.18;2.67;;;8.10;99.40;;;;;;4977714;28;20026;-90
2023/03/16 12:44:19;;;;;;;8.55;2.33;;;8.10;98.10;;;;;;4977265;28;20145;-90
2023/03/16 12:46:56;;;;;;;7.85;2.92;;;8.10;99.50;;;;;;4983482;28;20125;-87
2023/03/16 12:49:23;;;;;;;12.55;2.63;;;8.20;99.90;;;;;;4980939;28;20042;-85
2023/03/16 12:52:05;;;;;;;14.48;2.88;;;8.40;99.90;;;;;;4979327;28;20031;-90
2023/03/16 12:54:32;;;;;;;6.97;2.53;;;8.60;98.70;;;;;;4977100;28;20030;-86
2023/03/16 12:57:08;;;;;;;12.95;3.00;;;8.70;99.90;;;;;;4972053;28;20031;-90
2023/03/16 13:00:08;;;;;;;11.07;2.60;;;8.70;99.90;;;;;;4977400;28;20375;-90
2023/03/16 13:02:36;;;;;;;6.95;2.33;;;8.80;99.60;;;;;;4980648;28;20049;-88
2023/03/16 13:05:13;;;;;;;3.88;1.80;;;8.80;99.90;;;;;;4985504;28;20370;-82
2023/03/16 13:07:47;;;;;;;6.38;1.77;;;8.80;95.60;;;;;;4984906;28;20026;-90
2023/03/16 13:10:14;;;;;;;4.03;2.13;;;8.80;96.60;;;;;;4983301;28;20029;-90
2023/03/16 13:12:40;;;;;;;5.72;2.40;;;8.80;98.80;;;;;;4985675;28;20374;-85
2023/03/16 13:15:28;;;;;;;4.90;2.08;;;8.80;98.20;;;;;;4986688;28;20113;-88
2023/03/16 13:18:05;;;;;;;7.43;1.98;;;8.80;95.40;;;;;;4980624;28;20018;-88
2023/03/16 13:20:34;;;;;;;5.65;1.83;;;8.70;94.80;;;;;;4981996;28;20021;-90
2023/03/16 13:23:22;;;;;;;6.55;1.92;;;8.70;95.40;;;;;;4975388;28;20052;-89
2023/03/16 13:26:14;;;;;;;14.68;2.83;;;8.70;95.30;;;;;;4980490;28;20479;-87
2023/03/16 13:28:44;;;;;;;7.72;2.22;;;8.80;98.20;;;;;;4980806;28;20100;-89
2023/03/16 13:31:31;;;;;;;6.15;1.90;;;8.90;96.60;;;;;;4978414;28;20443;-87
2023/03/16 13:33:59;;;;;;;8.05;2.50;;;9.10;95.50;;;;;;4984736;28;20031;-91
2023/03/16 13:36:27;;;;;;;8.75;2.28;;;9.20;94.30;;;;;;4978057;28;20027;-91
2023/03/16 13:39:17;;;;;;;7.28;2.55;;;9.20;95.80;;;;;;4982092;28;20435;-89
2023/03/16 13:41:59;;;;;;;8.38;2.05;;;9.20;95.50;;;;;;4978535;28;20045;-90
2023/03/16 13:44:26;;;;;;;4.93;2.00;;;9.40;94.40;;;;;;4982187;28;20026;-91
2023/03/16 13:46:52;;;;;;;5.43;2.20;;;9.50;90.80;;;;;;4978179;28;20022;-91
2023/03/16 13:49:19;;;;;;;6.78;2.28;;;9.50;94.30;;;;;;4985682;28;20029;-92
2023/03/16 13:51:46;;;;;;;7.13;2.15;;;9.40;90.70;;;;;;4982962;28;20031;-91
2023/03/16 13:54:29;;;;;;;10.02;2.25;;;9.30;88.70;;;;;;4982800;28;20396;-90
2023/03/16 13:56:58;;;;;;;4.57;1.60;;;9.30;92.30;;;;;;4985085;28;20149;-89
2023/03/16 13:59:24;;;;;;;6.60;2.13;;;9.30;90.90;;;;;;4983606;28;20092;-90
2023/03/16 14:02:00;;;;;;;7.10;2.22;;;9.20;89.10;;;;;;4984829;28;20585;-90
2023/03/16 14:04:31;;;;;;;8.07;2.20;;;9.10;90.90;;;;;;4984419;28;20030;-90